sensor_id;sensor_type;location;lat;lon;timestamp;P1;durP1;ratioP1;P2;durP2;ratioP2
51724;SDS011;37801;53.224;6.552;2023-05-07T00:01:40;42.25;;;29.48;;
51724;SDS011;37801;53.224;6.552;2023-05-07T00:04:05;40.55;;;29.58;;
51724;SDS011;37801;53.224;6.552;2023-05-07T00:06:32;41.15;;;28.38;;
51724;SDS011;37801;53.224;6.552;2023-05-07T00:08:58;44.33;;;30.52;;
51724;SDS011;37801;53.224;6.552;2023-05-07T00:11:25;40.65;;;29.02;;
51724;SDS011;37801;53.224;6.552;2023-05-07T00:13:51;44.28;;;30.25;;
51724;SDS011;37801;53.224;6.552;2023-05-07T00:16:16;41.40;;;30.25;;
51724;SDS011;37801;53.224;6.552;2023-05-07T00:18:42;41.60;;;29.50;;
51724;SDS011;37801;53.224;6.552;2023-05-07T00:21:08;39.55;;;29.65;;
51724;SDS011;37801;53.224;6.552;2023-05-07T00:23:34;43.22;;;30.88;;
51724;SDS011;37801;53.224;6.552;2023-05-07T00:25:59;44.70;;;31.38;;
51724;SDS011;37801;53.224;6.552;2023-05-07T00:28:25;40.05;;;29.33;;
51724;SDS011;37801;53.224;6.552;2023-05-07T00:30:51;42.88;;;30.00;;
51724;SDS011;37801;53.224;6.552;2023-05-07T00:33:17;39.95;;;30.13;;
51724;SDS011;37801;53.224;6.552;2023-05-07T00:35:43;37.22;;;29.02;;
51724;SDS011;37801;53.224;6.552;2023-05-07T00:38:09;39.65;;;28.63;;
51724;SDS011;37801;53.224;6.552;2023-05-07T00:40:35;43.47;;;29.50;;
51724;SDS011;37801;53.224;6.552;2023-05-07T00:43:00;39.88;;;29.10;;
51724;SDS011;37801;53.224;6.552;2023-05-07T00:45:26;41.50;;;29.58;;
51724;SDS011;37801;53.224;6.552;2023-05-07T00:47:54;41.58;;;30.20;;
51724;SDS011;37801;53.224;6.552;2023-05-07T00:50:23;40.60;;;29.98;;
51724;SDS011;37801;53.224;6.552;2023-05-07T00:52:49;42.50;;;29.85;;
51724;SDS011;37801;53.224;6.552;2023-05-07T00:55:15;44.70;;;31.63;;
51724;SDS011;37801;53.224;6.552;2023-05-07T00:57:41;42.40;;;31.08;;
51724;SDS011;37801;53.224;6.552;2023-05-07T01:00:08;44.53;;;30.55;;
51724;SDS011;37801;53.224;6.552;2023-05-07T01:02:35;41.88;;;30.45;;
51724;SDS011;37801;53.224;6.552;2023-05-07T01:05:01;45.47;;;31.48;;
51724;SDS011;37801;53.224;6.552;2023-05-07T01:07:31;41.80;;;30.92;;
51724;SDS011;37801;53.224;6.552;2023-05-07T01:09:58;44.47;;;31.13;;
51724;SDS011;37801;53.224;6.552;2023-05-07T01:12:24;47.85;;;32.72;;
51724;SDS011;37801;53.224;6.552;2023-05-07T01:14:51;46.45;;;31.08;;
51724;SDS011;37801;53.224;6.552;2023-05-07T01:17:17;45.58;;;32.55;;
51724;SDS011;37801;53.224;6.552;2023-05-07T01:19:43;47.30;;;32.90;;
51724;SDS011;37801;53.224;6.552;2023-05-07T01:22:09;48.03;;;33.75;;
51724;SDS011;37801;53.224;6.552;2023-05-07T01:24:36;52.65;;;35.00;;
51724;SDS011;37801;53.224;6.552;2023-05-07T01:27:03;47.78;;;33.13;;
51724;SDS011;37801;53.224;6.552;2023-05-07T01:29:29;52.63;;;35.80;;
51724;SDS011;37801;53.224;6.552;2023-05-07T01:31:58;47.47;;;33.92;;
51724;SDS011;37801;53.224;6.552;2023-05-07T01:34:26;48.47;;;35.40;;
51724;SDS011;37801;53.224;6.552;2023-05-07T01:36:55;47.92;;;35.15;;
51724;SDS011;37801;53.224;6.552;2023-05-07T01:39:24;50.15;;;36.25;;
51724;SDS011;37801;53.224;6.552;2023-05-07T01:41:52;51.45;;;35.67;;
51724;SDS011;37801;53.224;6.552;2023-05-07T01:44:22;49.42;;;35.40;;
51724;SDS011;37801;53.224;6.552;2023-05-07T01:46:48;47.33;;;33.80;;
51724;SDS011;37801;53.224;6.552;2023-05-07T01:49:15;46.33;;;33.58;;
51724;SDS011;37801;53.224;6.552;2023-05-07T01:51:41;45.28;;;33.15;;
51724;SDS011;37801;53.224;6.552;2023-05-07T01:54:08;47.00;;;33.13;;
51724;SDS011;37801;53.224;6.552;2023-05-07T01:56:34;46.13;;;33.33;;
51724;SDS011;37801;53.224;6.552;2023-05-07T01:59:00;45.03;;;32.03;;
51724;SDS011;37801;53.224;6.552;2023-05-07T02:01:27;47.17;;;32.88;;
51724;SDS011;37801;53.224;6.552;2023-05-07T02:03:53;46.35;;;32.30;;
51724;SDS011;37801;53.224;6.552;2023-05-07T02:06:19;45.85;;;33.63;;
51724;SDS011;37801;53.224;6.552;2023-05-07T02:08:45;45.50;;;31.65;;
51724;SDS011;37801;53.224;6.552;2023-05-07T02:11:11;45.38;;;31.83;;
51724;SDS011;37801;53.224;6.552;2023-05-07T02:13:37;47.28;;;32.88;;
51724;SDS011;37801;53.224;6.552;2023-05-07T02:16:03;43.45;;;32.35;;
51724;SDS011;37801;53.224;6.552;2023-05-07T02:18:29;47.33;;;33.45;;
51724;SDS011;37801;53.224;6.552;2023-05-07T02:20:54;48.58;;;33.72;;
51724;SDS011;37801;53.224;6.552;2023-05-07T02:23:20;50.88;;;33.92;;
51724;SDS011;37801;53.224;6.552;2023-05-07T02:25:46;48.78;;;33.17;;
51724;SDS011;37801;53.224;6.552;2023-05-07T02:28:12;45.10;;;32.17;;
51724;SDS011;37801;53.224;6.552;2023-05-07T02:30:38;49.72;;;33.15;;
51724;SDS011;37801;53.224;6.552;2023-05-07T02:33:04;47.75;;;33.17;;
51724;SDS011;37801;53.224;6.552;2023-05-07T02:35:29;49.92;;;33.38;;
51724;SDS011;37801;53.224;6.552;2023-05-07T02:37:55;47.83;;;34.05;;
51724;SDS011;37801;53.224;6.552;2023-05-07T02:40:21;46.92;;;32.20;;
51724;SDS011;37801;53.224;6.552;2023-05-07T02:42:47;44.97;;;32.00;;
51724;SDS011;37801;53.224;6.552;2023-05-07T02:45:13;52.20;;;34.83;;
51724;SDS011;37801;53.224;6.552;2023-05-07T02:47:39;52.88;;;33.40;;
51724;SDS011;37801;53.224;6.552;2023-05-07T02:50:05;48.38;;;34.15;;
51724;SDS011;37801;53.224;6.552;2023-05-07T02:52:31;48.92;;;34.17;;
51724;SDS011;37801;53.224;6.552;2023-05-07T02:54:57;50.67;;;35.35;;
51724;SDS011;37801;53.224;6.552;2023-05-07T02:57:23;48.28;;;34.92;;
51724;SDS011;37801;53.224;6.552;2023-05-07T02:59:48;50.78;;;35.63;;
51724;SDS011;37801;53.224;6.552;2023-05-07T03:02:14;51.28;;;35.97;;
51724;SDS011;37801;53.224;6.552;2023-05-07T03:04:40;49.95;;;35.03;;
51724;SDS011;37801;53.224;6.552;2023-05-07T03:07:06;51.60;;;35.15;;
51724;SDS011;37801;53.224;6.552;2023-05-07T03:09:31;50.97;;;35.10;;
51724;SDS011;37801;53.224;6.552;2023-05-07T03:11:57;51.17;;;34.17;;
51724;SDS011;37801;53.224;6.552;2023-05-07T03:14:23;51.30;;;35.58;;
51724;SDS011;37801;53.224;6.552;2023-05-07T03:16:49;51.97;;;35.95;;
51724;SDS011;37801;53.224;6.552;2023-05-07T03:19:15;50.53;;;34.88;;
51724;SDS011;37801;53.224;6.552;2023-05-07T03:21:41;52.58;;;36.17;;
51724;SDS011;37801;53.224;6.552;2023-05-07T03:24:06;50.60;;;35.67;;
51724;SDS011;37801;53.224;6.552;2023-05-07T03:26:32;50.53;;;36.33;;
51724;SDS011;37801;53.224;6.552;2023-05-07T03:28:58;47.42;;;34.03;;
51724;SDS011;37801;53.224;6.552;2023-05-07T03:31:23;51.75;;;35.58;;
51724;SDS011;37801;53.224;6.552;2023-05-07T03:33:53;52.60;;;35.17;;
51724;SDS011;37801;53.224;6.552;2023-05-07T03:36:21;47.90;;;33.80;;
51724;SDS011;37801;53.224;6.552;2023-05-07T03:38:47;47.75;;;33.75;;
51724;SDS011;37801;53.224;6.552;2023-05-07T03:41:13;51.72;;;34.17;;
51724;SDS011;37801;53.224;6.552;2023-05-07T03:43:39;50.90;;;34.83;;
51724;SDS011;37801;53.224;6.552;2023-05-07T03:46:05;50.45;;;34.58;;
51724;SDS011;37801;53.224;6.552;2023-05-07T03:48:30;49.15;;;34.05;;
51724;SDS011;37801;53.224;6.552;2023-05-07T03:50:59;48.20;;;34.05;;
51724;SDS011;37801;53.224;6.552;2023-05-07T03:53:25;55.95;;;36.92;;
51724;SDS011;37801;53.224;6.552;2023-05-07T03:55:51;55.75;;;36.00;;
51724;SDS011;37801;53.224;6.552;2023-05-07T03:58:16;56.70;;;36.78;;
51724;SDS011;37801;53.224;6.552;2023-05-07T04:00:42;53.20;;;36.05;;
51724;SDS011;37801;53.224;6.552;2023-05-07T04:03:08;53.05;;;35.70;;
51724;SDS011;37801;53.224;6.552;2023-05-07T04:05:34;52.08;;;35.47;;
51724;SDS011;37801;53.224;6.552;2023-05-07T04:07:59;49.88;;;34.88;;
51724;SDS011;37801;53.224;6.552;2023-05-07T04:10:25;49.92;;;34.08;;
51724;SDS011;37801;53.224;6.552;2023-05-07T04:12:53;50.95;;;35.22;;
51724;SDS011;37801;53.224;6.552;2023-05-07T04:15:19;52.10;;;36.15;;
51724;SDS011;37801;53.224;6.552;2023-05-07T04:17:44;55.03;;;35.55;;
51724;SDS011;37801;53.224;6.552;2023-05-07T04:20:13;53.78;;;35.80;;
51724;SDS011;37801;53.224;6.552;2023-05-07T04:22:40;49.88;;;35.08;;
51724;SDS011;37801;53.224;6.552;2023-05-07T04:25:06;52.47;;;35.20;;
51724;SDS011;37801;53.224;6.552;2023-05-07T04:27:34;53.50;;;35.17;;
51724;SDS011;37801;53.224;6.552;2023-05-07T04:30:01;57.00;;;36.72;;
51724;SDS011;37801;53.224;6.552;2023-05-07T04:32:28;50.42;;;35.42;;
51724;SDS011;37801;53.224;6.552;2023-05-07T04:34:54;50.22;;;34.55;;
51724;SDS011;37801;53.224;6.552;2023-05-07T04:37:20;50.88;;;35.33;;
51724;SDS011;37801;53.224;6.552;2023-05-07T04:39:46;50.00;;;34.33;;
51724;SDS011;37801;53.224;6.552;2023-05-07T04:42:16;51.58;;;35.80;;
51724;SDS011;37801;53.224;6.552;2023-05-07T04:44:43;49.03;;;34.65;;
51724;SDS011;37801;53.224;6.552;2023-05-07T04:47:10;50.92;;;34.45;;
51724;SDS011;37801;53.224;6.552;2023-05-07T04:49:36;52.35;;;34.20;;
51724;SDS011;37801;53.224;6.552;2023-05-07T04:52:03;48.33;;;32.78;;
51724;SDS011;37801;53.224;6.552;2023-05-07T04:54:29;48.47;;;32.63;;
51724;SDS011;37801;53.224;6.552;2023-05-07T04:56:55;49.10;;;33.40;;
51724;SDS011;37801;53.224;6.552;2023-05-07T04:59:21;49.50;;;33.38;;
51724;SDS011;37801;53.224;6.552;2023-05-07T05:01:46;50.35;;;34.17;;
51724;SDS011;37801;53.224;6.552;2023-05-07T05:04:12;47.05;;;33.28;;
51724;SDS011;37801;53.224;6.552;2023-05-07T05:06:38;49.63;;;34.40;;
51724;SDS011;37801;53.224;6.552;2023-05-07T05:09:04;49.70;;;34.45;;
51724;SDS011;37801;53.224;6.552;2023-05-07T05:11:30;49.47;;;33.67;;
51724;SDS011;37801;53.224;6.552;2023-05-07T05:13:56;47.90;;;32.20;;
51724;SDS011;37801;53.224;6.552;2023-05-07T05:16:22;47.08;;;32.85;;
51724;SDS011;37801;53.224;6.552;2023-05-07T05:18:48;45.67;;;32.70;;
51724;SDS011;37801;53.224;6.552;2023-05-07T05:21:13;47.45;;;31.98;;
51724;SDS011;37801;53.224;6.552;2023-05-07T05:23:39;49.58;;;34.45;;
51724;SDS011;37801;53.224;6.552;2023-05-07T05:26:05;54.85;;;35.33;;
51724;SDS011;37801;53.224;6.552;2023-05-07T05:28:31;46.20;;;32.85;;
51724;SDS011;37801;53.224;6.552;2023-05-07T05:30:56;46.17;;;31.77;;
51724;SDS011;37801;53.224;6.552;2023-05-07T05:33:22;47.90;;;32.58;;
51724;SDS011;37801;53.224;6.552;2023-05-07T05:35:48;47.75;;;33.15;;
51724;SDS011;37801;53.224;6.552;2023-05-07T05:38:14;46.00;;;33.08;;
51724;SDS011;37801;53.224;6.552;2023-05-07T05:40:40;51.03;;;32.78;;
51724;SDS011;37801;53.224;6.552;2023-05-07T05:43:06;47.50;;;31.50;;
51724;SDS011;37801;53.224;6.552;2023-05-07T05:45:31;47.35;;;34.38;;
51724;SDS011;37801;53.224;6.552;2023-05-07T05:47:57;44.33;;;31.73;;
51724;SDS011;37801;53.224;6.552;2023-05-07T05:50:23;44.60;;;31.23;;
51724;SDS011;37801;53.224;6.552;2023-05-07T05:52:49;45.72;;;32.72;;
51724;SDS011;37801;53.224;6.552;2023-05-07T05:55:14;45.45;;;31.60;;
51724;SDS011;37801;53.224;6.552;2023-05-07T05:57:40;44.83;;;32.17;;
51724;SDS011;37801;53.224;6.552;2023-05-07T06:00:06;42.67;;;31.42;;
51724;SDS011;37801;53.224;6.552;2023-05-07T06:02:33;44.45;;;31.25;;
51724;SDS011;37801;53.224;6.552;2023-05-07T06:04:58;44.38;;;31.45;;
51724;SDS011;37801;53.224;6.552;2023-05-07T06:07:24;45.78;;;30.98;;
51724;SDS011;37801;53.224;6.552;2023-05-07T06:09:50;45.40;;;31.50;;
51724;SDS011;37801;53.224;6.552;2023-05-07T06:12:16;43.13;;;31.17;;
51724;SDS011;37801;53.224;6.552;2023-05-07T06:14:44;44.63;;;31.60;;
51724;SDS011;37801;53.224;6.552;2023-05-07T06:17:10;42.88;;;30.08;;
51724;SDS011;37801;53.224;6.552;2023-05-07T06:19:36;50.33;;;31.85;;
51724;SDS011;37801;53.224;6.552;2023-05-07T06:22:01;44.50;;;31.65;;
51724;SDS011;37801;53.224;6.552;2023-05-07T06:24:27;42.83;;;31.25;;
51724;SDS011;37801;53.224;6.552;2023-05-07T06:26:54;43.45;;;31.15;;
51724;SDS011;37801;53.224;6.552;2023-05-07T06:29:20;46.47;;;33.58;;
51724;SDS011;37801;53.224;6.552;2023-05-07T06:31:45;46.38;;;34.22;;
51724;SDS011;37801;53.224;6.552;2023-05-07T06:34:11;46.75;;;33.88;;
51724;SDS011;37801;53.224;6.552;2023-05-07T06:36:39;48.55;;;33.85;;
51724;SDS011;37801;53.224;6.552;2023-05-07T06:39:06;48.10;;;33.15;;
51724;SDS011;37801;53.224;6.552;2023-05-07T06:41:31;47.33;;;35.15;;
51724;SDS011;37801;53.224;6.552;2023-05-07T06:43:57;46.63;;;34.90;;
51724;SDS011;37801;53.224;6.552;2023-05-07T06:46:23;48.55;;;35.33;;
51724;SDS011;37801;53.224;6.552;2023-05-07T06:48:49;50.15;;;35.75;;
51724;SDS011;37801;53.224;6.552;2023-05-07T06:51:14;51.42;;;36.33;;
51724;SDS011;37801;53.224;6.552;2023-05-07T06:53:40;49.72;;;35.50;;
51724;SDS011;37801;53.224;6.552;2023-05-07T06:56:06;51.13;;;36.45;;
51724;SDS011;37801;53.224;6.552;2023-05-07T06:58:32;49.30;;;36.65;;
51724;SDS011;37801;53.224;6.552;2023-05-07T07:00:58;49.63;;;36.08;;
51724;SDS011;37801;53.224;6.552;2023-05-07T07:03:23;45.70;;;33.83;;
51724;SDS011;37801;53.224;6.552;2023-05-07T07:05:52;47.75;;;34.33;;
51724;SDS011;37801;53.224;6.552;2023-05-07T07:08:19;44.92;;;34.33;;
51724;SDS011;37801;53.224;6.552;2023-05-07T07:10:46;46.47;;;32.38;;
51724;SDS011;37801;53.224;6.552;2023-05-07T07:13:12;45.30;;;32.33;;
51724;SDS011;37801;53.224;6.552;2023-05-07T07:15:38;46.25;;;31.48;;
51724;SDS011;37801;53.224;6.552;2023-05-07T07:18:04;42.20;;;30.52;;
51724;SDS011;37801;53.224;6.552;2023-05-07T07:20:30;41.58;;;30.27;;
51724;SDS011;37801;53.224;6.552;2023-05-07T07:22:55;42.60;;;30.70;;
51724;SDS011;37801;53.224;6.552;2023-05-07T07:25:21;44.92;;;31.02;;
51724;SDS011;37801;53.224;6.552;2023-05-07T07:27:47;47.83;;;30.80;;
51724;SDS011;37801;53.224;6.552;2023-05-07T07:30:12;45.63;;;31.17;;
51724;SDS011;37801;53.224;6.552;2023-05-07T07:32:38;48.63;;;32.03;;
51724;SDS011;37801;53.224;6.552;2023-05-07T07:35:04;42.03;;;29.45;;
51724;SDS011;37801;53.224;6.552;2023-05-07T07:37:30;47.63;;;30.90;;
51724;SDS011;37801;53.224;6.552;2023-05-07T07:39:56;46.88;;;30.55;;
51724;SDS011;37801;53.224;6.552;2023-05-07T07:42:21;46.35;;;32.75;;
51724;SDS011;37801;53.224;6.552;2023-05-07T07:44:47;48.22;;;32.50;;
51724;SDS011;37801;53.224;6.552;2023-05-07T07:47:13;48.72;;;33.13;;
51724;SDS011;37801;53.224;6.552;2023-05-07T07:49:39;48.83;;;32.33;;
51724;SDS011;37801;53.224;6.552;2023-05-07T07:52:05;49.72;;;32.38;;
51724;SDS011;37801;53.224;6.552;2023-05-07T07:54:31;50.17;;;32.83;;
51724;SDS011;37801;53.224;6.552;2023-05-07T07:56:57;49.63;;;33.58;;
51724;SDS011;37801;53.224;6.552;2023-05-07T07:59:23;52.60;;;34.45;;
51724;SDS011;37801;53.224;6.552;2023-05-07T08:01:49;50.35;;;32.88;;
51724;SDS011;37801;53.224;6.552;2023-05-07T08:04:15;53.28;;;33.75;;
51724;SDS011;37801;53.224;6.552;2023-05-07T08:06:41;51.85;;;34.08;;
51724;SDS011;37801;53.224;6.552;2023-05-07T08:09:07;51.80;;;34.22;;
51724;SDS011;37801;53.224;6.552;2023-05-07T08:11:33;50.22;;;33.00;;
51724;SDS011;37801;53.224;6.552;2023-05-07T08:13:59;53.78;;;35.10;;
51724;SDS011;37801;53.224;6.552;2023-05-07T08:16:25;49.83;;;33.90;;
51724;SDS011;37801;53.224;6.552;2023-05-07T08:18:51;51.20;;;35.00;;
51724;SDS011;37801;53.224;6.552;2023-05-07T08:21:16;51.35;;;34.50;;
51724;SDS011;37801;53.224;6.552;2023-05-07T08:23:42;51.70;;;34.38;;
51724;SDS011;37801;53.224;6.552;2023-05-07T08:26:08;48.17;;;33.85;;
51724;SDS011;37801;53.224;6.552;2023-05-07T08:28:34;51.05;;;34.15;;
51724;SDS011;37801;53.224;6.552;2023-05-07T08:31:00;49.03;;;33.00;;
51724;SDS011;37801;53.224;6.552;2023-05-07T08:33:26;46.78;;;32.30;;
51724;SDS011;37801;53.224;6.552;2023-05-07T08:35:52;53.03;;;34.55;;
51724;SDS011;37801;53.224;6.552;2023-05-07T08:38:17;46.08;;;33.00;;
51724;SDS011;37801;53.224;6.552;2023-05-07T08:40:43;48.30;;;33.17;;
51724;SDS011;37801;53.224;6.552;2023-05-07T08:43:11;53.67;;;33.58;;
51724;SDS011;37801;53.224;6.552;2023-05-07T08:45:39;51.22;;;35.05;;
51724;SDS011;37801;53.224;6.552;2023-05-07T08:48:08;49.90;;;33.20;;
51724;SDS011;37801;53.224;6.552;2023-05-07T08:50:39;53.13;;;34.55;;
51724;SDS011;37801;53.224;6.552;2023-05-07T08:53:05;48.30;;;32.80;;
51724;SDS011;37801;53.224;6.552;2023-05-07T08:55:31;47.08;;;31.63;;
51724;SDS011;37801;53.224;6.552;2023-05-07T08:57:58;47.15;;;31.77;;
51724;SDS011;37801;53.224;6.552;2023-05-07T09:00:24;47.67;;;33.10;;
51724;SDS011;37801;53.224;6.552;2023-05-07T09:02:50;48.05;;;33.28;;
51724;SDS011;37801;53.224;6.552;2023-05-07T09:05:17;48.83;;;33.60;;
51724;SDS011;37801;53.224;6.552;2023-05-07T09:07:43;50.63;;;34.10;;
51724;SDS011;37801;53.224;6.552;2023-05-07T09:10:08;53.78;;;35.28;;
51724;SDS011;37801;53.224;6.552;2023-05-07T09:12:34;46.83;;;32.63;;
51724;SDS011;37801;53.224;6.552;2023-05-07T09:15:01;48.13;;;33.38;;
51724;SDS011;37801;53.224;6.552;2023-05-07T09:17:28;55.47;;;34.45;;
51724;SDS011;37801;53.224;6.552;2023-05-07T09:19:54;46.03;;;32.55;;
51724;SDS011;37801;53.224;6.552;2023-05-07T09:22:20;50.50;;;32.95;;
51724;SDS011;37801;53.224;6.552;2023-05-07T09:24:50;49.80;;;33.58;;
51724;SDS011;37801;53.224;6.552;2023-05-07T09:27:17;43.70;;;31.40;;
51724;SDS011;37801;53.224;6.552;2023-05-07T09:29:43;51.45;;;33.92;;
51724;SDS011;37801;53.224;6.552;2023-05-07T09:32:09;47.88;;;32.42;;
51724;SDS011;37801;53.224;6.552;2023-05-07T09:34:35;48.40;;;32.60;;
51724;SDS011;37801;53.224;6.552;2023-05-07T09:37:02;45.80;;;33.28;;
51724;SDS011;37801;53.224;6.552;2023-05-07T09:39:44;47.17;;;32.10;;
51724;SDS011;37801;53.224;6.552;2023-05-07T09:42:12;45.65;;;32.22;;
51724;SDS011;37801;53.224;6.552;2023-05-07T09:44:39;45.05;;;31.90;;
51724;SDS011;37801;53.224;6.552;2023-05-07T09:47:06;46.67;;;31.23;;
51724;SDS011;37801;53.224;6.552;2023-05-07T09:49:36;40.33;;;30.63;;
51724;SDS011;37801;53.224;6.552;2023-05-07T09:52:04;41.90;;;30.30;;
51724;SDS011;37801;53.224;6.552;2023-05-07T09:54:34;42.28;;;29.92;;
51724;SDS011;37801;53.224;6.552;2023-05-07T09:57:03;42.90;;;30.17;;
51724;SDS011;37801;53.224;6.552;2023-05-07T09:59:29;45.35;;;30.10;;
51724;SDS011;37801;53.224;6.552;2023-05-07T10:01:57;40.45;;;29.85;;
51724;SDS011;37801;53.224;6.552;2023-05-07T10:04:27;41.33;;;29.50;;
51724;SDS011;37801;53.224;6.552;2023-05-07T10:06:54;36.90;;;27.77;;
51724;SDS011;37801;53.224;6.552;2023-05-07T10:09:21;38.30;;;28.52;;
51724;SDS011;37801;53.224;6.552;2023-05-07T10:11:51;40.60;;;28.73;;
51724;SDS011;37801;53.224;6.552;2023-05-07T10:14:19;37.78;;;27.63;;
51724;SDS011;37801;53.224;6.552;2023-05-07T10:16:46;36.00;;;26.73;;
51724;SDS011;37801;53.224;6.552;2023-05-07T10:19:13;34.97;;;27.73;;
51724;SDS011;37801;53.224;6.552;2023-05-07T10:21:44;37.63;;;27.30;;
51724;SDS011;37801;53.224;6.552;2023-05-07T10:24:20;33.35;;;25.77;;
51724;SDS011;37801;53.224;6.552;2023-05-07T10:26:51;37.00;;;27.05;;
51724;SDS011;37801;53.224;6.552;2023-05-07T10:29:18;34.58;;;25.83;;
51724;SDS011;37801;53.224;6.552;2023-05-07T10:32:24;33.70;;;26.20;;
51724;SDS011;37801;53.224;6.552;2023-05-07T10:35:10;33.97;;;25.45;;
51724;SDS011;37801;53.224;6.552;2023-05-07T10:37:40;32.63;;;25.48;;
51724;SDS011;37801;53.224;6.552;2023-05-07T10:40:07;33.55;;;25.83;;
51724;SDS011;37801;53.224;6.552;2023-05-07T10:42:34;35.22;;;26.15;;
51724;SDS011;37801;53.224;6.552;2023-05-07T10:45:15;33.20;;;24.98;;
51724;SDS011;37801;53.224;6.552;2023-05-07T10:55:43;31.92;;;25.17;;
51724;SDS011;37801;53.224;6.552;2023-05-07T10:58:29;30.13;;;24.52;;
51724;SDS011;37801;53.224;6.552;2023-05-07T11:03:28;30.00;;;24.10;;
51724;SDS011;37801;53.224;6.552;2023-05-07T11:08:57;30.63;;;23.08;;
51724;SDS011;37801;53.224;6.552;2023-05-07T11:17:20;27.30;;;21.52;;
51724;SDS011;37801;53.224;6.552;2023-05-07T11:19:55;26.77;;;22.48;;
51724;SDS011;37801;53.224;6.552;2023-05-07T11:24:57;25.45;;;21.92;;
51724;SDS011;37801;53.224;6.552;2023-05-07T11:27:25;24.58;;;21.15;;
51724;SDS011;37801;53.224;6.552;2023-05-07T11:29:52;26.70;;;21.85;;
51724;SDS011;37801;53.224;6.552;2023-05-07T11:34:51;27.05;;;21.17;;
51724;SDS011;37801;53.224;6.552;2023-05-07T11:37:19;24.45;;;20.63;;
51724;SDS011;37801;53.224;6.552;2023-05-07T11:39:45;23.70;;;21.05;;
51724;SDS011;37801;53.224;6.552;2023-05-07T11:42:30;27.95;;;21.35;;
51724;SDS011;37801;53.224;6.552;2023-05-07T11:44:57;23.65;;;20.70;;
51724;SDS011;37801;53.224;6.552;2023-05-07T11:47:23;22.42;;;19.63;;
51724;SDS011;37801;53.224;6.552;2023-05-07T11:49:53;27.48;;;20.35;;
51724;SDS011;37801;53.224;6.552;2023-05-07T11:52:21;24.30;;;19.88;;
51724;SDS011;37801;53.224;6.552;2023-05-07T11:54:51;23.63;;;20.10;;
51724;SDS011;37801;53.224;6.552;2023-05-07T11:57:18;23.00;;;19.70;;
51724;SDS011;37801;53.224;6.552;2023-05-07T11:59:44;23.38;;;20.05;;
51724;SDS011;37801;53.224;6.552;2023-05-07T12:02:13;23.77;;;19.70;;
51724;SDS011;37801;53.224;6.552;2023-05-07T12:04:40;25.20;;;21.27;;
51724;SDS011;37801;53.224;6.552;2023-05-07T12:07:15;25.60;;;21.20;;
51724;SDS011;37801;53.224;6.552;2023-05-07T12:09:42;23.88;;;19.15;;
51724;SDS011;37801;53.224;6.552;2023-05-07T12:12:08;22.27;;;19.40;;
51724;SDS011;37801;53.224;6.552;2023-05-07T12:14:52;22.13;;;19.73;;
51724;SDS011;37801;53.224;6.552;2023-05-07T12:17:18;23.20;;;18.98;;
51724;SDS011;37801;53.224;6.552;2023-05-07T12:19:44;23.77;;;19.02;;
51724;SDS011;37801;53.224;6.552;2023-05-07T12:22:10;23.80;;;19.73;;
51724;SDS011;37801;53.224;6.552;2023-05-07T12:24:43;21.98;;;18.45;;
51724;SDS011;37801;53.224;6.552;2023-05-07T12:27:16;20.75;;;18.33;;
51724;SDS011;37801;53.224;6.552;2023-05-07T12:29:49;20.90;;;17.77;;
51724;SDS011;37801;53.224;6.552;2023-05-07T12:32:16;20.20;;;17.80;;
51724;SDS011;37801;53.224;6.552;2023-05-07T12:34:43;22.60;;;19.15;;
51724;SDS011;37801;53.224;6.552;2023-05-07T12:37:10;21.13;;;17.77;;
51724;SDS011;37801;53.224;6.552;2023-05-07T12:39:36;22.15;;;19.75;;
51724;SDS011;37801;53.224;6.552;2023-05-07T12:42:01;21.17;;;18.60;;
51724;SDS011;37801;53.224;6.552;2023-05-07T12:44:32;21.88;;;18.98;;
51724;SDS011;37801;53.224;6.552;2023-05-07T12:47:02;22.95;;;19.05;;
51724;SDS011;37801;53.224;6.552;2023-05-07T12:49:28;20.45;;;17.13;;
51724;SDS011;37801;53.224;6.552;2023-05-07T12:51:53;19.13;;;17.02;;
51724;SDS011;37801;53.224;6.552;2023-05-07T12:57:06;22.23;;;18.48;;
51724;SDS011;37801;53.224;6.552;2023-05-07T12:59:36;19.10;;;17.10;;
51724;SDS011;37801;53.224;6.552;2023-05-07T13:02:03;21.08;;;18.00;;
51724;SDS011;37801;53.224;6.552;2023-05-07T13:04:29;19.73;;;16.33;;
51724;SDS011;37801;53.224;6.552;2023-05-07T13:06:55;19.85;;;16.05;;
51724;SDS011;37801;53.224;6.552;2023-05-07T13:09:21;20.20;;;17.35;;
51724;SDS011;37801;53.224;6.552;2023-05-07T13:11:47;18.42;;;16.42;;
51724;SDS011;37801;53.224;6.552;2023-05-07T13:14:12;18.63;;;16.23;;
51724;SDS011;37801;53.224;6.552;2023-05-07T13:16:38;18.52;;;15.90;;
51724;SDS011;37801;53.224;6.552;2023-05-07T13:19:04;17.85;;;15.95;;
51724;SDS011;37801;53.224;6.552;2023-05-07T13:21:30;17.02;;;15.23;;
51724;SDS011;37801;53.224;6.552;2023-05-07T13:23:57;18.77;;;16.48;;
51724;SDS011;37801;53.224;6.552;2023-05-07T13:26:23;18.27;;;16.23;;
51724;SDS011;37801;53.224;6.552;2023-05-07T13:28:49;17.58;;;14.85;;
51724;SDS011;37801;53.224;6.552;2023-05-07T13:31:16;16.85;;;15.05;;
51724;SDS011;37801;53.224;6.552;2023-05-07T13:33:43;17.63;;;15.73;;
51724;SDS011;37801;53.224;6.552;2023-05-07T13:36:08;19.23;;;17.10;;
51724;SDS011;37801;53.224;6.552;2023-05-07T13:38:34;20.58;;;15.90;;
51724;SDS011;37801;53.224;6.552;2023-05-07T13:41:00;18.23;;;15.23;;
51724;SDS011;37801;53.224;6.552;2023-05-07T13:43:26;18.55;;;16.00;;
51724;SDS011;37801;53.224;6.552;2023-05-07T13:45:52;20.00;;;17.20;;
51724;SDS011;37801;53.224;6.552;2023-05-07T13:48:17;18.92;;;16.55;;
51724;SDS011;37801;53.224;6.552;2023-05-07T13:50:43;19.80;;;16.83;;
51724;SDS011;37801;53.224;6.552;2023-05-07T13:53:09;19.58;;;17.48;;
51724;SDS011;37801;53.224;6.552;2023-05-07T13:55:35;18.65;;;15.75;;
51724;SDS011;37801;53.224;6.552;2023-05-07T13:58:01;18.33;;;16.23;;
51724;SDS011;37801;53.224;6.552;2023-05-07T14:00:28;18.50;;;15.48;;
51724;SDS011;37801;53.224;6.552;2023-05-07T14:02:55;16.77;;;14.65;;
51724;SDS011;37801;53.224;6.552;2023-05-07T14:05:21;17.65;;;15.27;;
51724;SDS011;37801;53.224;6.552;2023-05-07T14:07:52;16.95;;;14.85;;
51724;SDS011;37801;53.224;6.552;2023-05-07T14:10:19;16.30;;;14.48;;
51724;SDS011;37801;53.224;6.552;2023-05-07T14:12:45;15.48;;;13.90;;
51724;SDS011;37801;53.224;6.552;2023-05-07T14:15:11;18.38;;;14.95;;
51724;SDS011;37801;53.224;6.552;2023-05-07T14:17:37;16.20;;;14.27;;
51724;SDS011;37801;53.224;6.552;2023-05-07T14:20:03;16.27;;;14.57;;
51724;SDS011;37801;53.224;6.552;2023-05-07T14:22:31;18.17;;;16.23;;
51724;SDS011;37801;53.224;6.552;2023-05-07T14:24:56;17.58;;;15.75;;
51724;SDS011;37801;53.224;6.552;2023-05-07T14:27:22;16.70;;;14.90;;
51724;SDS011;37801;53.224;6.552;2023-05-07T14:29:48;16.98;;;14.88;;
51724;SDS011;37801;53.224;6.552;2023-05-07T14:32:19;19.95;;;15.35;;
51724;SDS011;37801;53.224;6.552;2023-05-07T14:34:45;17.90;;;15.95;;
51724;SDS011;37801;53.224;6.552;2023-05-07T14:37:11;15.55;;;13.52;;
51724;SDS011;37801;53.224;6.552;2023-05-07T14:39:37;15.75;;;13.48;;
51724;SDS011;37801;53.224;6.552;2023-05-07T14:42:03;16.05;;;13.55;;
51724;SDS011;37801;53.224;6.552;2023-05-07T14:44:29;15.55;;;13.85;;
51724;SDS011;37801;53.224;6.552;2023-05-07T14:46:56;16.13;;;14.43;;